sensor_id;sensor_type;location;lat;lon;timestamp;pressure;altitude;pressure_sealevel;temperature;humidity
71857;BME280;63344;46.980;28.882;2023-04-02T00:00:33;99296.03;;;9.06;99.05
71857;BME280;63344;46.980;28.882;2023-04-02T00:03:21;99289.03;;;9.05;99.02
71857;BME280;63344;46.980;28.882;2023-04-02T00:05:48;99291.56;;;9.06;99.22
71857;BME280;63344;46.980;28.882;2023-04-02T00:08:37;99293.44;;;9.04;99.12
71857;BME280;63344;46.980;28.882;2023-04-02T00:11:07;99296.09;;;9.04;99.10
71857;BME280;63344;46.980;28.882;2023-04-02T00:13:42;99295.31;;;9.02;99.07
71857;BME280;63344;46.980;28.882;2023-04-02T00:16:16;99289.19;;;9.02;99.16
71857;BME280;63344;46.980;28.882;2023-04-02T00:18:49;99291.75;;;9.03;99.26
71857;BME280;63344;46.980;28.882;2023-04-02T00:21:32;99295.31;;;9.02;99.02
71857;BME280;63344;46.980;28.882;2023-04-02T00:24:01;99296.19;;;9.03;99.19
71857;BME280;63344;46.980;28.882;2023-04-02T00:26:36;99289.09;;;9.03;99.02
71857;BME280;63344;46.980;28.882;2023-04-02T00:29:06;99293.44;;;9.04;99.22
71857;BME280;63344;46.980;28.882;2023-04-02T00:31:33;99287.31;;;9.04;99.00
71857;BME280;63344;46.980;28.882;2023-04-02T00:34:05;99289.94;;;9.04;98.87
71857;BME280;63344;46.980;28.882;2023-04-02T00:36:34;99290.03;;;9.02;99.14
71857;BME280;63344;46.980;28.882;2023-04-02T00:39:03;99286.53;;;9.02;99.27
71857;BME280;63344;46.980;28.882;2023-04-02T00:41:36;99287.56;;;8.99;98.81
71857;BME280;63344;46.980;28.882;2023-04-02T00:44:05;99286.69;;;8.98;99.09
71857;BME280;63344;46.980;28.882;2023-04-02T00:46:39;99278.91;;;8.95;98.94
71857;BME280;63344;46.980;28.882;2023-04-02T00:49:20;99278.84;;;8.97;99.20
71857;BME280;63344;46.980;28.882;2023-04-02T00:51:55;99279.78;;;8.96;99.08
71857;BME280;63344;46.980;28.882;2023-04-02T00:54:27;99279.78;;;8.96;99.38
71857;BME280;63344;46.980;28.882;2023-04-02T00:56:57;99270.13;;;8.95;99.27
71857;BME280;63344;46.980;28.882;2023-04-02T00:59:33;99273.56;;;8.97;99.05
71857;BME280;63344;46.980;28.882;2023-04-02T01:10:18;99283.97;;;9.00;99.42
71857;BME280;63344;46.980;28.882;2023-04-02T01:13:07;99282.97;;;9.03;99.36
71857;BME280;63344;46.980;28.882;2023-04-02T01:15:40;99285.59;;;9.03;99.36
71857;BME280;63344;46.980;28.882;2023-04-02T01:18:34;99282.97;;;9.03;99.05
71857;BME280;63344;46.980;28.882;2023-04-02T01:21:12;99293.56;;;9.03;98.92
71857;BME280;63344;46.980;28.882;2023-04-02T01:24:11;99290.03;;;9.02;98.86
71857;BME280;63344;46.980;28.882;2023-04-02T01:29:29;99284.72;;;9.02;98.78
71857;BME280;63344;46.980;28.882;2023-04-02T01:32:01;99290.03;;;9.02;98.81
71857;BME280;63344;46.980;28.882;2023-04-02T01:34:30;99287.31;;;9.04;98.86
71857;BME280;63344;46.980;28.882;2023-04-02T01:37:09;99281.16;;;9.03;98.95
71857;BME280;63344;46.980;28.882;2023-04-02T01:42:32;99288.16;;;9.04;98.83
71857;BME280;63344;46.980;28.882;2023-04-02T01:45:14;99285.50;;;9.04;98.82
71857;BME280;63344;46.980;28.882;2023-04-02T01:47:42;99290.03;;;9.02;98.61
71857;BME280;63344;46.980;28.882;2023-04-02T01:50:23;99283.13;;;9.00;98.74
71857;BME280;63344;46.980;28.882;2023-04-02T01:52:54;99280.53;;;8.98;98.47
71857;BME280;63344;46.980;28.882;2023-04-02T01:55:30;99279.69;;;8.97;98.78
71857;BME280;63344;46.980;28.882;2023-04-02T01:57:59;99277.91;;;8.98;98.97
71857;BME280;63344;46.980;28.882;2023-04-02T02:00:27;99270.91;;;8.97;98.63
71857;BME280;63344;46.980;28.882;2023-04-02T02:02:58;99279.44;;;9.02;99.00
71857;BME280;63344;46.980;28.882;2023-04-02T02:05:26;99274.13;;;9.02;99.21
71857;BME280;63344;46.980;28.882;2023-04-02T02:07:55;99274.91;;;9.04;98.92
71857;BME280;63344;46.980;28.882;2023-04-02T02:10:32;99273.22;;;9.03;98.73
71857;BME280;63344;46.980;28.882;2023-04-02T02:13:01;99270.66;;;9.02;98.82
71857;BME280;63344;46.980;28.882;2023-04-02T02:15:30;99268.00;;;9.02;98.76
71857;BME280;63344;46.980;28.882;2023-04-02T02:18:03;99261.84;;;9.01;98.92
71857;BME280;63344;46.980;28.882;2023-04-02T02:20:32;99269.03;;;8.99;98.58
71857;BME280;63344;46.980;28.882;2023-04-02T02:23:00;99269.03;;;8.99;99.03
71857;BME280;63344;46.980;28.882;2023-04-02T02:25:32;99272.59;;;8.98;99.02
71857;BME280;63344;46.980;28.882;2023-04-02T02:33:18;99273.69;;;8.94;99.20
71857;BME280;63344;46.980;28.882;2023-04-02T02:35:59;99274.81;;;8.90;98.83
71857;BME280;63344;46.980;28.882;2023-04-02T02:38:42;99280.88;;;8.92;99.20
71857;BME280;63344;46.980;28.882;2023-04-02T02:41:34;99279.19;;;8.91;99.14
71857;BME280;63344;46.980;28.882;2023-04-02T02:46:37;99284.69;;;8.86;99.29
71857;BME280;63344;46.980;28.882;2023-04-02T02:49:06;99285.66;;;8.85;99.09
71857;BME280;63344;46.980;28.882;2023-04-02T02:51:57;99286.56;;;8.84;99.49
71857;BME280;63344;46.980;28.882;2023-04-02T02:54:26;99278.88;;;8.80;99.13
71857;BME280;63344;46.980;28.882;2023-04-02T02:56:57;99278.97;;;8.78;98.97
71857;BME280;63344;46.980;28.882;2023-04-02T02:59:27;99277.16;;;8.78;99.24
71857;BME280;63344;46.980;28.882;2023-04-02T03:01:56;99277.25;;;8.77;99.35
71857;BME280;63344;46.980;28.882;2023-04-02T03:04:24;99283.47;;;8.76;99.35
71857;BME280;63344;46.980;28.882;2023-04-02T03:06:52;99289.72;;;8.75;99.22
71857;BME280;63344;46.980;28.882;2023-04-02T03:09:48;99282.78;;;8.72;99.52
71857;BME280;63344;46.980;28.882;2023-04-02T03:18:09;99290.81;;;8.71;100.00
71857;BME280;63344;46.980;28.882;2023-04-02T03:20:57;99289.09;;;8.70;100.00
71857;BME280;63344;46.980;28.882;2023-04-02T03:23:34;99296.19;;;8.69;99.66
71857;BME280;63344;46.980;28.882;2023-04-02T03:26:29;99286.53;;;8.68;100.00
71857;BME280;63344;46.980;28.882;2023-04-02T03:29:02;99290.13;;;8.67;99.97
71857;BME280;63344;46.980;28.882;2023-04-02T03:31:34;99293.81;;;8.65;100.00
71857;BME280;63344;46.980;28.882;2023-04-02T03:34:10;99286.78;;;8.64;100.00
71857;BME280;63344;46.980;28.882;2023-04-02T03:36:47;99284.22;;;8.62;99.89
71857;BME280;63344;46.980;28.882;2023-04-02T03:42:11;99291.31;;;8.62;100.00
71857;BME280;63344;46.980;28.882;2023-04-02T03:44:50;99294.97;;;8.59;100.00
71857;BME280;63344;46.980;28.882;2023-04-02T03:52:49;99300.41;;;8.56;100.00
71857;BME280;63344;46.980;28.882;2023-04-02T03:55:21;99307.44;;;8.57;100.00
71857;BME280;63344;46.980;28.882;2023-04-02T03:58:05;99308.34;;;8.56;100.00
71857;BME280;63344;46.980;28.882;2023-04-02T04:00:38;99305.69;;;8.56;100.00
71857;BME280;63344;46.980;28.882;2023-04-02T04:03:15;99306.53;;;8.56;100.00
71857;BME280;63344;46.980;28.882;2023-04-02T04:05:50;99309.91;;;8.60;100.00
71857;BME280;63344;46.980;28.882;2023-04-02T04:08:21;99308.19;;;8.59;100.00
71857;BME280;63344;46.980;28.882;2023-04-02T04:10:51;99317.91;;;8.58;100.00
71857;BME280;63344;46.980;28.882;2023-04-02T04:13:28;99312.63;;;8.58;100.00
71857;BME280;63344;46.980;28.882;2023-04-02T04:16:03;99309.13;;;8.58;100.00
71857;BME280;63344;46.980;28.882;2023-04-02T04:18:45;99317.91;;;8.58;100.00
71857;BME280;63344;46.980;28.882;2023-04-02T04:21:22;99320.47;;;8.60;100.00
71857;BME280;63344;46.980;28.882;2023-04-02T04:24:02;99321.31;;;8.61;100.00
71857;BME280;63344;46.980;28.882;2023-04-02T04:26:57;99321.31;;;8.61;100.00
71857;BME280;63344;46.980;28.882;2023-04-02T04:29:54;99320.47;;;8.60;100.00
71857;BME280;63344;46.980;28.882;2023-04-02T04:32:36;99326.63;;;8.61;100.00
71857;BME280;63344;46.980;28.882;2023-04-02T04:35:38;99326.72;;;8.59;100.00
71857;BME280;63344;46.980;28.882;2023-04-02T04:38:20;99322.34;;;8.58;100.00
71857;BME280;63344;46.980;28.882;2023-04-02T04:40:56;99330.28;;;8.58;100.00
71857;BME280;63344;46.980;28.882;2023-04-02T04:46:37;99329.53;;;8.56;100.00
71857;BME280;63344;46.980;28.882;2023-04-02T04:49:34;99326.16;;;8.52;100.00
71857;BME280;63344;46.980;28.882;2023-04-02T04:52:25;99327.97;;;8.52;100.00
71857;BME280;63344;46.980;28.882;2023-04-02T04:54:52;99327.13;;;8.51;100.00
71857;BME280;63344;46.980;28.882;2023-04-02T04:57:36;99332.41;;;8.51;100.00
71857;BME280;63344;46.980;28.882;2023-04-02T05:00:18;99327.97;;;8.52;100.00
71857;BME280;63344;46.980;28.882;2023-04-02T05:02:59;99335.91;;;8.52;100.00
71857;BME280;63344;46.980;28.882;2023-04-02T05:05:30;99335.91;;;8.52;100.00
71857;BME280;63344;46.980;28.882;2023-04-02T05:08:08;99340.28;;;8.53;100.00
71857;BME280;63344;46.980;28.882;2023-04-02T05:10:43;99344.69;;;8.52;100.00
71857;BME280;63344;46.980;28.882;2023-04-02T05:13:28;99346.41;;;8.53;100.00
71857;BME280;63344;46.980;28.882;2023-04-02T05:16:02;99348.22;;;8.53;100.00
71857;BME280;63344;46.980;28.882;2023-04-02T05:22:11;99343.91;;;8.50;100.00
71857;BME280;63344;46.980;28.882;2023-04-02T05:24:53;99354.44;;;8.52;100.00
71857;BME280;63344;46.980;28.882;2023-04-02T05:27:38;99346.41;;;8.53;100.00
71857;BME280;63344;46.980;28.882;2023-04-02T05:32:54;99355.19;;;8.54;100.00
71857;BME280;63344;46.980;28.882;2023-04-02T05:35:29;99361.28;;;8.56;100.00
71857;BME280;63344;46.980;28.882;2023-04-02T05:38:02;99350.75;;;8.54;100.00
71857;BME280;63344;46.980;28.882;2023-04-02T05:40:40;99352.47;;;8.55;100.00
71857;BME280;63344;46.980;28.882;2023-04-02T05:43:09;99349.06;;;8.53;100.00
71857;BME280;63344;46.980;28.882;2023-04-02T05:45:43;99355.97;;;8.56;100.00
71857;BME280;63344;46.980;28.882;2023-04-02T05:48:31;99362.06;;;8.58;100.00
71857;BME280;63344;46.980;28.882;2023-04-02T05:51:01;99363.78;;;8.59;100.00
71857;BME280;63344;46.980;28.882;2023-04-02T05:53:34;99361.91;;;8.61;100.00
71857;BME280;63344;46.980;28.882;2023-04-02T05:58:49;99356.50;;;8.63;100.00
71857;BME280;63344;46.980;28.882;2023-04-02T06:04:18;99368.75;;;8.65;100.00
71857;BME280;63344;46.980;28.882;2023-04-02T06:09:33;99374.81;;;8.67;100.00
71857;BME280;63344;46.980;28.882;2023-04-02T06:12:11;99382.59;;;8.70;100.00
71857;BME280;63344;46.980;28.882;2023-04-02T06:14:40;99381.66;;;8.71;100.00
71857;BME280;63344;46.980;28.882;2023-04-02T06:17:19;99384.31;;;8.71;100.00
71857;BME280;63344;46.980;28.882;2023-04-02T06:19:48;99383.38;;;8.72;100.00
71857;BME280;63344;46.980;28.882;2023-04-02T06:22:36;99382.38;;;8.75;100.00
71857;BME280;63344;46.980;28.882;2023-04-02T06:25:27;99387.66;;;8.75;100.00
71857;BME280;63344;46.980;28.882;2023-04-02T06:27:58;99386.66;;;8.77;100.00
71857;BME280;63344;46.980;28.882;2023-04-02T06:30:31;99390.06;;;8.80;100.00
71857;BME280;63344;46.980;28.882;2023-04-02T06:32:59;99384.78;;;8.80;100.00
71857;BME280;63344;46.980;28.882;2023-04-02T06:35:26;99391.88;;;8.79;100.00
71857;BME280;63344;46.980;28.882;2023-04-02T06:37:56;99402.34;;;8.81;100.00
71857;BME280;63344;46.980;28.882;2023-04-02T06:43:01;99404.22;;;8.78;100.00
71857;BME280;63344;46.980;28.882;2023-04-02T06:45:40;99400.66;;;8.80;100.00
71857;BME280;63344;46.980;28.882;2023-04-02T06:48:16;99403.31;;;8.80;100.00
71857;BME280;63344;46.980;28.882;2023-04-02T06:50:53;99403.31;;;8.80;100.00
71857;BME280;63344;46.980;28.882;2023-04-02T06:53:32;99414.53;;;8.85;100.00
71857;BME280;63344;46.980;28.882;2023-04-02T06:59:14;99408.34;;;8.84;100.00
71857;BME280;63344;46.980;28.882;2023-04-02T07:02:01;99419.59;;;8.89;100.00
71857;BME280;63344;46.980;28.882;2023-04-02T07:04:34;99415.06;;;8.91;100.00
71857;BME280;63344;46.980;28.882;2023-04-02T07:07:01;99416.69;;;8.94;100.00
71857;BME280;63344;46.980;28.882;2023-04-02T07:09:29;99406.88;;;8.96;100.00
71857;BME280;63344;46.980;28.882;2023-04-02T07:11:56;99419.78;;;9.02;100.00
71857;BME280;63344;46.980;28.882;2023-04-02T07:14:24;99413.50;;;9.05;100.00
71857;BME280;63344;46.980;28.882;2023-04-02T07:16:52;99417.53;;;9.12;100.00
71857;BME280;63344;46.980;28.882;2023-04-02T07:19:21;99411.75;;;9.21;100.00
71857;BME280;63344;46.980;28.882;2023-04-02T07:21:49;99414.16;;;9.26;100.00
71857;BME280;63344;46.980;28.882;2023-04-02T07:24:24;99412.91;;;9.33;100.00
71857;BME280;63344;46.980;28.882;2023-04-02T07:26:53;99418.78;;;9.38;100.00
71857;BME280;63344;46.980;28.882;2023-04-02T07:29:23;99410.91;;;9.36;99.35
71857;BME280;63344;46.980;28.882;2023-04-02T07:31:50;99418.19;;;9.33;98.95
71857;BME280;63344;46.980;28.882;2023-04-02T07:34:20;99420.22;;;9.28;98.73
71857;BME280;63344;46.980;28.882;2023-04-02T07:36:48;99417.19;;;9.18;98.57
71857;BME280;63344;46.980;28.882;2023-04-02T07:39:16;99417.59;;;9.10;99.13
71857;BME280;63344;46.980;28.882;2023-04-02T07:41:54;99408.28;;;9.03;98.76
71857;BME280;63344;46.980;28.882;2023-04-02T07:44:22;99414.59;;;9.01;99.01
71857;BME280;63344;46.980;28.882;2023-04-02T07:46:56;99411.25;;;8.97;99.26
71857;BME280;63344;46.980;28.882;2023-04-02T07:49:27;99420.19;;;8.94;99.73
71857;BME280;63344;46.980;28.882;2023-04-02T07:51:54;99427.34;;;8.92;99.90
71857;BME280;63344;46.980;28.882;2023-04-02T07:54:22;99423.94;;;8.90;100.00
71857;BME280;63344;46.980;28.882;2023-04-02T07:56:49;99429.16;;;8.92;100.00
71857;BME280;63344;46.980;28.882;2023-04-02T07:59:17;99435.41;;;8.91;100.00
71857;BME280;63344;46.980;28.882;2023-04-02T08:01:45;99430.09;;;8.91;100.00
71857;BME280;63344;46.980;28.882;2023-04-02T08:04:18;99430.78;;;8.94;100.00
71857;BME280;63344;46.980;28.882;2023-04-02T08:06:48;99436.19;;;8.93;100.00
71857;BME280;63344;46.980;28.882;2023-04-02T08:09:16;99432.75;;;8.91;100.00
71857;BME280;63344;46.980;28.882;2023-04-02T08:11:44;99432.75;;;8.91;100.00
71857;BME280;63344;46.980;28.882;2023-04-02T08:14:13;99436.38;;;8.88;100.00
71857;BME280;63344;46.980;28.882;2023-04-02T08:16:51;99435.47;;;8.89;100.00
71857;BME280;63344;46.980;28.882;2023-04-02T08:19:46;99443.41;;;8.89;100.00
71857;BME280;63344;46.980;28.882;2023-04-02T08:22:20;99442.69;;;8.86;100.00
71857;BME280;63344;46.980;28.882;2023-04-02T08:24:48;99440.22;;;8.83;100.00
71857;BME280;63344;46.980;28.882;2023-04-02T08:27:17;99449.94;;;8.82;100.00
71857;BME280;63344;46.980;28.882;2023-04-02T08:29:45;99445.53;;;8.83;100.00
71857;BME280;63344;46.980;28.882;2023-04-02T08:32:13;99444.72;;;8.81;100.00
71857;BME280;63344;46.980;28.882;2023-04-02T08:34:46;99446.59;;;8.78;100.00
71857;BME280;63344;46.980;28.882;2023-04-02T08:37:13;99449.34;;;8.77;100.00
71857;BME280;63344;46.980;28.882;2023-04-02T08:39:40;99441.59;;;8.72;100.00
71857;BME280;63344;46.980;28.882;2023-04-02T08:42:40;99453.91;;;8.73;100.00
71857;BME280;63344;46.980;28.882;2023-04-02T08:45:32;99451.28;;;8.73;100.00
71857;BME280;63344;46.980;28.882;2023-04-02T08:48:02;99458.38;;;8.73;100.00
71857;BME280;63344;46.980;28.882;2023-04-02T08:50:34;99458.50;;;8.70;100.00
71857;BME280;63344;46.980;28.882;2023-04-02T08:53:05;99457.59;;;8.71;100.00
71857;BME280;63344;46.980;28.882;2023-04-02T08:55:37;99454.63;;;8.77;100.00
71857;BME280;63344;46.980;28.882;2023-04-02T08:58:39;99456.19;;;8.81;99.72
71857;BME280;63344;46.980;28.882;2023-04-02T09:01:52;99448.31;;;8.80;98.97
71857;BME280;63344;46.980;28.882;2023-04-02T09:04:22;99457.03;;;8.82;99.00
71857;BME280;63344;46.980;28.882;2023-04-02T09:06:55;99457.94;;;8.81;99.41
71857;BME280;63344;46.980;28.882;2023-04-02T09:09:24;99452.59;;;8.82;99.60
71857;BME280;63344;46.980;28.882;2023-04-02T09:11:55;99453.59;;;8.80;100.00
71857;BME280;63344;46.980;28.882;2023-04-02T09:14:43;99469.34;;;8.83;100.00
71857;BME280;63344;46.980;28.882;2023-04-02T09:17:19;99457.75;;;8.85;100.00
71857;BME280;63344;46.980;28.882;2023-04-02T09:19:56;99462.00;;;8.88;100.00
71857;BME280;63344;46.980;28.882;2023-04-02T09:22:30;99456.66;;;8.89;100.00
71857;BME280;63344;46.980;28.882;2023-04-02T09:25:00;99465.31;;;8.93;100.00
71857;BME280;63344;46.980;28.882;2023-04-02T09:27:33;99462.66;;;8.93;100.00
71857;BME280;63344;46.980;28.882;2023-04-02T09:30:26;99472.16;;;8.97;100.00
71857;BME280;63344;46.980;28.882;2023-04-02T09:33:02;99471.13;;;9.00;100.00
71857;BME280;63344;46.980;28.882;2023-04-02T09:38:26;99477.22;;;9.02;100.00
71857;BME280;63344;46.980;28.882;2023-04-02T09:41:17;99475.41;;;9.02;100.00
71857;BME280;63344;46.980;28.882;2023-04-02T09:43:46;99476.97;;;9.06;100.00
71857;BME280;63344;46.980;28.882;2023-04-02T09:46:21;99473.53;;;9.04;99.50
71857;BME280;63344;46.980;28.882;2023-04-02T09:48:54;99484.91;;;9.06;99.09
71857;BME280;63344;46.980;28.882;2023-04-02T09:51:28;99485.00;;;9.05;99.36
71857;BME280;63344;46.980;28.882;2023-04-02T09:56:29;99485.09;;;9.03;99.95
71857;BME280;63344;46.980;28.882;2023-04-02T09:59:16;99497.31;;;9.06;100.00
71857;BME280;63344;46.980;28.882;2023-04-02T10:01:46;99492.84;;;9.06;100.00
71857;BME280;63344;46.980;28.882;2023-04-02T10:04:39;99480.72;;;9.02;99.97
71857;BME280;63344;46.980;28.882;2023-04-02T10:09:59;99499.09;;;9.05;100.00
71857;BME280;63344;46.980;28.882;2023-04-02T10:12:29;99497.22;;;9.07;100.00
71857;BME280;63344;46.980;28.882;2023-04-02T10:15:20;99502.47;;;9.09;100.00
71857;BME280;63344;46.980;28.882;2023-04-02T10:18:01;99503.13;;;9.12;100.00
71857;BME280;63344;46.980;28.882;2023-04-02T10:20:39;99504.94;;;9.12;100.00
71857;BME280;63344;46.980;28.882;2023-04-02T10:23:17;99503.84;;;9.16;100.00
71857;BME280;63344;46.980;28.882;2023-04-02T10:31:32;99512.50;;;9.20;100.00
71857;BME280;63344;46.980;28.882;2023-04-02T10:34:11;99516.69;;;9.24;100.00
71857;BME280;63344;46.980;28.882;2023-04-02T10:37:04;99517.22;;;9.30;100.00
71857;BME280;63344;46.980;28.882;2023-04-02T10:39:40;99518.72;;;9.36;100.00
71857;BME280;63344;46.980;28.882;2023-04-02T10:47:47;99525.75;;;9.37;100.00
71857;BME280;63344;46.980;28.882;2023-04-02T10:53:37;99532.66;;;9.40;100.00
71857;BME280;63344;46.980;28.882;2023-04-02T10:56:10;99530.78;;;9.42;100.00
71857;BME280;63344;46.980;28.882;2023-04-02T10:58:59;99541.16;;;9.46;100.00
71857;BME280;63344;46.980;28.882;2023-04-02T11:01:30;99536.94;;;9.42;100.00
71857;BME280;63344;46.980;28.882;2023-04-02T11:04:06;99545.53;;;9.47;100.00
71857;BME280;63344;46.980;28.882;2023-04-02T11:06:43;99550.81;;;9.47;100.00
71857;BME280;63344;46.980;28.882;2023-04-02T11:09:19;99543.47;;;9.52;100.00
71857;BME280;63344;46.980;28.882;2023-04-02T11:11:51;99550.50;;;9.53;100.00
71857;BME280;63344;46.980;28.882;2023-04-02T11:14:28;99553.09;;;9.55;100.00
71857;BME280;63344;46.980;28.882;2023-04-02T11:16:58;99546.75;;;9.57;100.00
71857;BME280;63344;46.980;28.882;2023-04-02T11:19:28;99549.41;;;9.57;100.00
71857;BME280;63344;46.980;28.882;2023-04-02T11:21:58;99560.66;;;9.63;100.00
71857;BME280;63344;46.980;28.882;2023-04-02T11:27:25;99557.50;;;9.72;100.00
71857;BME280;63344;46.980;28.882;2023-04-02T11:30:19;99554.84;;;9.72;100.00
71857;BME280;63344;46.980;28.882;2023-04-02T11:32:48;99567.94;;;9.75;100.00
71857;BME280;63344;46.980;28.882;2023-04-02T11:40:58;99562.25;;;9.83;100.00
71857;BME280;63344;46.980;28.882;2023-04-02T11:48:42;99572.53;;;9.89;100.00
71857;BME280;63344;46.980;28.882;2023-04-02T11:53:52;99576.47;;;9.97;100.00
71857;BME280;63344;46.980;28.882;2023-04-02T11:56:46;99573.06;;;9.95;100.00
71857;BME280;63344;46.980;28.882;2023-04-02T11:59:27;99570.31;;;9.97;100.00
71857;BME280;63344;46.980;28.882;2023-04-02T12:05:23;99578.34;;;9.95;99.44
71857;BME280;63344;46.980;28.882;2023-04-02T12:10:31;99584.19;;;10.02;99.48
71857;BME280;63344;46.980;28.882;2023-04-02T12:12:58;99576.34;;;10.01;99.04
71857;BME280;63344;46.980;28.882;2023-04-02T12:15:44;99588.56;;;10.03;99.43
71857;BME280;63344;46.980;28.882;2023-04-02T12:18:21;99581.31;;;10.07;99.46
71857;BME280;63344;46.980;28.882;2023-04-02T12:20:52;99583.63;;;10.13;99.44
71857;BME280;63344;46.980;28.882;2023-04-02T12:23:27;99591.25;;;10.19;99.58
71857;BME280;63344;46.980;28.882;2023-04-02T12:26:05;99591.84;;;10.24;100.00
71857;BME280;63344;46.980;28.882;2023-04-02T12:28:35;99590.84;;;10.27;99.90
71857;BME280;63344;46.980;28.882;2023-04-02T12:33:57;99587.16;;;10.29;99.94
71857;BME280;63344;46.980;28.882;2023-04-02T12:36:25;99588.72;;;10.33;99.55
71857;BME280;63344;46.980;28.882;2023-04-02T12:38:55;99587.03;;;10.32;99.57
71857;BME280;63344;46.980;28.882;2023-04-02T12:41:28;99596.44;;;10.38;99.73
71857;BME280;63344;46.980;28.882;2023-04-02T12:46:29;99589.94;;;10.44;99.29
71857;BME280;63344;46.980;28.882;2023-04-02T12:51:43;99594.47;;;10.42;98.18
71857;BME280;63344;46.980;28.882;2023-04-02T12:54:14;99593.44;;;10.44;98.26
71857;BME280;63344;46.980;28.882;2023-04-02T12:56:45;99598.84;;;10.43;97.77
71857;BME280;63344;46.980;28.882;2023-04-02T13:01:55;99592.16;;;10.35;97.43
71857;BME280;63344;46.980;28.882;2023-04-02T13:04:23;99599.34;;;10.33;97.17
71857;BME280;63344;46.980;28.882;2023-04-02T13:06:51;99597.66;;;10.32;97.36
71857;BME280;63344;46.980;28.882;2023-04-02T13:09:30;99600.44;;;10.29;97.92
71857;BME280;63344;46.980;28.882;2023-04-02T13:12:00;99599.44;;;10.32;98.16
71857;BME280;63344;46.980;28.882;2023-04-02T13:14:29;99599.50;;;10.30;98.20
71857;BME280;63344;46.980;28.882;2023-04-02T13:16:57;99596.22;;;10.25;97.29
71857;BME280;63344;46.980;28.882;2023-04-02T13:19:30;99604.25;;;10.24;97.26
71857;BME280;63344;46.980;28.882;2023-04-02T13:22:00;99598.56;;;10.31;98.18
71857;BME280;63344;46.980;28.882;2023-04-02T13:24:32;99601.84;;;10.36;98.67
71857;BME280;63344;46.980;28.882;2023-04-02T13:27:01;99597.13;;;10.42;99.05
71857;BME280;63344;46.980;28.882;2023-04-02T13:29:35;99594.97;;;10.48;98.80
71857;BME280;63344;46.980;28.882;2023-04-02T13:32:06;99596.63;;;10.51;97.89
71857;BME280;63344;46.980;28.882;2023-04-02T13:34:37;99598.53;;;10.49;97.49
71857;BME280;63344;46.980;28.882;2023-04-02T13:37:04;99601.59;;;10.57;97.77
71857;BME280;63344;46.980;28.882;2023-04-02T13:39:31;99594.69;;;10.54;95.63
71857;BME280;63344;46.980;28.882;2023-04-02T13:42:01;99593.72;;;10.55;96.28
71857;BME280;63344;46.980;28.882;2023-04-02T13:44:30;99594.84;;;10.51;96.73
71857;BME280;63344;46.980;28.882;2023-04-02T13:46:59;99608.81;;;10.55;97.29
71857;BME280;63344;46.980;28.882;2023-04-02T13:49:26;99602.47;;;10.57;97.03
71857;BME280;63344;46.980;28.882;2023-04-02T13:51:59;99599.03;;;10.55;96.73
71857;BME280;63344;46.980;28.882;2023-04-02T13:54:31;99609.66;;;10.55;96.31
71857;BME280;63344;46.980;28.882;2023-04-02T13:57:02;99605.53;;;10.50;96.05
71857;BME280;63344;46.980;28.882;2023-04-02T13:59:30;99603.97;;;10.46;95.98
71857;BME280;63344;46.980;28.882;2023-04-02T14:02:08;99601.34;;;10.46;96.25
71857;BME280;63344;46.980;28.882;2023-04-02T14:04:43;99613.69;;;10.47;96.04
71857;BME280;63344;46.980;28.882;2023-04-02T14:17:44;99609.13;;;10.49;97.51
71857;BME280;63344;46.980;28.882;2023-04-02T14:23:48;99610.31;;;10.43;96.21
71857;BME280;63344;46.980;28.882;2023-04-02T14:26:36;99610.31;;;10.43;96.11
71857;BME280;63344;46.980;28.882;2023-04-02T14:29:25;99611.19;;;10.44;96.84
71857;BME280;63344;46.980;28.882;2023-04-02T14:32:10;99612.03;;;10.44;97.05
71857;BME280;63344;46.980;28.882;2023-04-02T14:38:04;99612.22;;;10.41;97.13
71857;BME280;63344;46.980;28.882;2023-04-02T14:43:15;99606.53;;;10.31;97.36
71857;BME280;63344;46.980;28.882;2023-04-02T14:51:37;99617.47;;;10.25;97.83
71857;BME280;63344;46.980;28.882;2023-04-02T14:56:51;99610.69;;;10.20;97.02
71857;BME280;63344;46.980;28.882;2023-04-02T15:05:15;99623.09;;;10.19;97.91
71857;BME280;63344;46.980;28.882;2023-04-02T15:07:57;99618.63;;;10.20;98.20
71857;BME280;63344;46.980;28.882;2023-04-02T15:10:25;99624.13;;;10.16;98.53
71857;BME280;63344;46.980;28.882;2023-04-02T15:12:59;99622.47;;;10.14;98.04
71857;BME280;63344;46.980;28.882;2023-04-02T15:15:57;99630.44;;;10.14;98.32
71857;BME280;63344;46.980;28.882;2023-04-02T15:18:29;99629.72;;;10.10;98.49
71857;BME280;63344;46.980;28.882;2023-04-02T15:21:12;99636.84;;;10.10;98.79
71857;BME280;63344;46.980;28.882;2023-04-02T15:24:13;99642.06;;;10.11;99.16
71857;BME280;63344;46.980;28.882;2023-04-02T15:32:38;99658.91;;;10.10;99.40
71857;BME280;63344;46.980;28.882;2023-04-02T15:35:36;99660.72;;;10.10;99.47
71857;BME280;63344;46.980;28.882;2023-04-02T15:38:22;99653.72;;;10.09;99.20
71857;BME280;63344;46.980;28.882;2023-04-02T15:43:43;99664.31;;;10.09;98.78
71857;BME280;63344;46.980;28.882;2023-04-02T15:46:27;99654.09;;;10.01;98.17
71857;BME280;63344;46.980;28.882;2023-04-02T15:52:00;99666.53;;;10.01;99.13
71857;BME280;63344;46.980;28.882;2023-04-02T15:57:53;99677.34;;;9.96;99.06
71857;BME280;63344;46.980;28.882;2023-04-02T16:00:30;99674.00;;;9.92;99.51
71857;BME280;63344;46.980;28.882;2023-04-02T16:06:24;99682.91;;;9.91;99.73
71857;BME280;63344;46.980;28.882;2023-04-02T16:09:49;99690.78;;;9.93;99.41
71857;BME280;63344;46.980;28.882;2023-04-02T16:11:58;99686.47;;;9.90;99.51
71857;BME280;63344;46.980;28.882;2023-04-02T16:14:30;99685.78;;;9.87;99.25
71857;BME280;63344;46.980;28.882;2023-04-02T16:17:02;99693.81;;;9.85;99.29
71857;BME280;63344;46.980;28.882;2023-04-02T16:19:53;99690.47;;;9.82;99.20
71857;BME280;63344;46.980;28.882;2023-04-02T16:22:28;99691.31;;;9.82;99.48